Terminal Aerodrome Forecast
Issued by NWS Paducah, KY

Home | Current Version | Previous Version | Text Only | Print | Product List | Glossary On
Versions: 1 2 3 4 5 6 7 8 9 10 11 12 13 14
000
FTUS43 KPAH 111140
TAFPAH
TAF
KPAH 111140Z 1112/1212 18009G15KT P6SM OVC050
     FM112000 19010G18KT P6SM VCSH OVC035
     FM112300 19009KT P6SM -SHRA OVC025
     FM120200 20009KT 3SM SHRA BR OVC006
     FM120600 24007KT 5SM -RA BR OVC004
     FM120900 31007KT P6SM OVC012=

USA.gov is the U.S. government's official web portal to all federal, state and local government web resources and services.